Time;durP1;ratioP1;P1;durP2;ratioP2;P2;SDS_P1;SDS_P2;PMS_P1;PMS_P2;Temp;Humidity;BMP_temperature;BMP_pressure;BME280_temperature;BME280_humidity;BME280_pressure;Samples;Min_cycle;Max_cycle;Signal;HPM_P1;HPM_P2
2022/08/04 00:04:16;;;;;;;12.45;6.57;;;;;;;21.84;88.80;100003.50;10454001;28;20115;-73
2022/08/04 00:09:41;;;;;;;18.45;6.78;;;;;;;21.87;89.26;100013.81;10461262;28;20068;-73
2022/08/04 00:14:48;;;;;;;10.82;6.80;;;;;;;21.40;88.87;99968.28;10460538;28;20049;-72
2022/08/04 00:19:55;;;;;;;19.50;7.47;;;;;;;21.74;88.93;100033.09;10461081;28;20037;-72
2022/08/04 00:24:57;;;;;;;13.40;7.10;;;;;;;21.70;87.48;100026.56;10442736;28;20467;-72
2022/08/04 00:29:59;;;;;;;13.25;6.70;;;;;;;21.26;87.10;99951.56;10461008;28;20047;-73
2022/08/04 00:35:00;;;;;;;14.93;7.35;;;;;;;21.63;87.41;100022.16;10459414;28;20060;-72
2022/08/04 00:40:21;;;;;;;12.85;7.18;;;;;;;21.52;87.18;100023.06;10460165;28;20041;-73
2022/08/04 00:45:51;;;;;;;15.25;6.78;;;;;;;21.20;88.56;99996.59;10459014;28;20037;-72
2022/08/04 00:51:19;;;;;;;13.40;6.25;;;;;;;21.27;89.35;100028.03;10459715;28;20120;-73
2022/08/04 00:56:56;;;;;;;18.52;7.95;;;;;;;21.12;89.96;100029.44;10458728;28;20048;-72
2022/08/04 01:02:15;;;;;;;15.35;7.50;;;;;;;21.03;91.34;100033.63;10459656;28;20037;-72
2022/08/04 01:07:39;;;;;;;16.85;7.72;;;;;;;20.53;90.34;99983.06;10459058;28;20176;-72
2022/08/04 01:13:10;;;;;;;12.75;8.05;;;;;;;20.96;91.90;100047.25;10461286;28;20088;-72
2022/08/04 01:18:22;;;;;;;25.80;7.75;;;;;;;20.78;91.48;100036.66;10499716;28;20047;-72
2022/08/04 01:23:50;;;;;;;49.17;9.82;;;;;;;20.88;90.32;100057.63;10499792;28;20050;-73
2022/08/04 01:29:10;;;;;;;50.38;10.98;;;;;;;20.77;90.51;100063.91;10498765;28;20131;-72
2022/08/04 01:34:12;;;;;;;27.83;8.25;;;;;;;20.58;89.22;100071.38;10498717;28;20044;-72
2022/08/04 01:44:36;;;;;;;55.92;9.73;;;;;;;20.64;91.03;100070.41;10498907;28;20420;-72
2022/08/04 01:49:37;;;;;;;18.00;7.60;;;;;;;20.52;91.08;100057.81;10498084;28;20539;-73
2022/08/04 01:54:41;;;;;;;93.90;12.50;;;;;;;20.26;91.50;100039.44;10480275;28;20048;-72
2022/08/04 01:59:44;;;;;;;35.38;9.23;;;;;;;20.52;91.28;100082.09;10498187;28;20044;-72
2022/08/04 02:04:45;;;;;;;13.55;7.93;;;;;;;20.49;91.68;100071.75;10498502;28;20091;-72
2022/08/04 02:10:04;;;;;;;113.60;14.15;;;;;;;20.42;91.46;100064.84;10497591;28;20092;-73
2022/08/04 02:15:24;;;;;;;171.48;17.33;;;;;;;20.59;90.66;100105.41;10473361;28;20061;-73
2022/08/04 02:20:28;;;;;;;278.65;25.08;;;;;;;20.63;92.23;100095.78;10455301;28;20424;-72
2022/08/04 02:25:36;;;;;;;22.40;8.60;;;;;;;20.33;93.61;100037.41;10456409;28;20041;-72
2022/08/04 02:30:49;;;;;;;184.18;18.30;;;;;;;20.34;92.30;100030.13;10454884;28;20040;-72
2022/08/04 02:35:56;;;;;;;43.88;9.70;;;;;;;20.85;91.09;100094.06;10455292;28;20041;-73
2022/08/04 02:41:00;;;;;;;68.65;11.40;;;;;;;20.77;91.67;100072.84;10455825;28;20141;-72
2022/08/04 02:46:04;;;;;;;127.03;15.02;;;;;;;20.94;91.02;100073.69;10455467;28;20047;-73
2022/08/04 02:51:05;;;;;;;29.13;9.80;;;;;;;21.38;91.51;100117.13;10455068;28;20120;-72
2022/08/04 02:56:08;;;;;;;18.10;9.05;;;;;;;21.55;92.25;100092.03;10496488;28;20133;-72
2022/08/04 03:01:09;;;;;;;18.60;10.32;;;;;;;22.09;91.23;100127.44;10495626;28;20040;-72
2022/08/04 03:06:10;;;;;;;18.50;9.60;;;;;;;22.68;89.94;100140.41;10496262;28;20067;-72
2022/08/04 03:11:47;;;;;;;15.90;8.95;;;;;;;23.85;86.28;100129.88;10496407;28;20085;-73
2022/08/04 03:17:28;;;;;;;10.75;7.75;;;;;;;25.25;79.33;100131.03;10534160;28;20138;-73
2022/08/04 03:22:59;;;;;;;11.55;8.50;;;;;;;26.50;73.88;100134.13;10536979;28;20077;-73
2022/08/04 03:28:36;;;;;;;11.23;7.72;;;;;;;27.63;69.49;100120.63;10537300;28;20040;-73
2022/08/04 03:33:40;;;;;;;13.93;7.47;;;;;;;28.52;66.47;100123.81;10537167;28;20090;-73
2022/08/04 03:38:58;;;;;;;10.75;6.82;;;;;;;29.29;60.98;100139.97;10539069;28;20130;-74
2022/08/04 03:44:37;;;;;;;13.50;6.78;;;;;;;30.32;59.34;100140.91;10545333;28;20491;-74
2022/08/04 03:50:07;;;;;;;11.50;6.38;;;;;;;30.87;56.64;100108.78;10545476;28;20047;-74
2022/08/04 03:55:32;;;;;;;15.35;6.75;;;;;;;30.94;56.17;100141.28;10544660;28;20047;-72
2022/08/04 04:00:45;;;;;;;13.68;7.28;;;;;;;30.95;55.29;100089.97;10544938;28;20412;-72
2022/08/04 04:05:49;;;;;;;12.88;5.90;;;;;;;31.50;53.91;100145.47;10544313;28;20460;-71
2022/08/04 04:10:58;;;;;;;14.30;6.15;;;;;;;32.07;52.06;100147.56;10544096;28;20043;-72
2022/08/04 04:16:20;;;;;;;11.95;5.70;;;;;;;32.44;50.71;100146.25;10543598;28;20060;-72
2022/08/04 04:21:27;;;;;;;11.75;5.40;;;;;;;32.55;49.86;100149.53;10515296;28;20507;-72
2022/08/04 04:27:13;;;;;;;14.30;4.78;;;;;;;33.38;47.60;100157.69;10459940;28;20098;-71
2022/08/04 04:32:32;;;;;;;8.55;4.82;;;;;;;32.68;48.16;100082.56;10461687;28;20444;-73
2022/08/04 04:37:35;;;;;;;13.48;5.03;;;;;;;33.11;47.93;100158.03;10511729;28;20091;-74
2022/08/04 04:42:48;;;;;;;11.75;4.40;;;;;;;33.51;46.04;100155.94;10524209;28;20507;-74
2022/08/04 04:48:07;;;;;;;11.57;4.80;;;;;;;32.95;46.69;100149.44;10542981;28;20083;-73
2022/08/04 04:53:17;;;;;;;15.88;4.43;;;;;;;32.76;46.44;100085.63;10510439;28;20052;-73
2022/08/04 04:58:19;;;;;;;10.90;4.75;;;;;;;32.90;46.73;100149.56;10499361;28;20154;-73
2022/08/04 05:03:52;;;;;;;;;;;;;;;33.74;44.91;100153.75;10501246;28;20447;-73
2022/08/04 05:09:11;;;;;;;19.90;5.30;;;;;;;32.29;47.20;100089.75;10476905;28;19974;-73
2022/08/04 05:14:30;;;;;;;11.80;4.70;;;;;;;31.64;48.58;100089.63;10500330;28;20060;-73
2022/08/04 05:19:37;;;;;;;12.60;4.13;;;;;;;31.67;49.03;100163.97;10500077;28;20048;-73
2022/08/04 05:24:43;;;;;;;11.85;4.70;;;;;;;31.32;49.68;100171.94;10499856;28;20044;-73
2022/08/04 05:30:05;;;;;;;13.38;4.38;;;;;;;31.04;49.27;100134.72;10499500;28;20036;-72
2022/08/04 05:35:14;;;;;;;16.75;4.30;;;;;;;30.90;49.59;100165.78;10498169;28;20043;-72
2022/08/04 05:40:18;;;;;;;9.60;4.40;;;;;;;30.50;50.35;100087.09;10498509;28;20067;-72
2022/08/04 05:45:20;;;;;;;11.55;4.40;;;;;;;31.09;49.71;100143.66;10499031;28;20091;-72
2022/08/04 05:50:22;;;;;;;9.83;3.90;;;;;;;31.36;49.02;100161.16;10498545;28;20044;-73
2022/08/04 05:55:24;;;;;;;11.55;4.22;;;;;;;31.26;47.65;100137.50;10499036;28;20044;-73
2022/08/04 06:00:26;;;;;;;50.97;6.63;;;;;;;31.63;49.04;100151.19;10498314;28;20041;-73
2022/08/04 06:05:28;;;;;;;8.63;4.10;;;;;;;31.62;48.02;100147.63;10497146;28;20127;-73
2022/08/04 06:10:33;;;;;;;9.02;3.08;;;;;;;31.81;46.10;100148.22;10498031;28;20139;-72
2022/08/04 06:15:38;;;;;;;8.38;4.00;;;;;;;31.94;45.65;100145.72;10497133;28;20056;-73
2022/08/04 06:20:42;;;;;;;9.38;3.95;;;;;;;31.57;46.01;100003.03;10498068;28;20044;-74
2022/08/04 06:25:52;;;;;;;8.68;3.40;;;;;;;32.53;43.81;100137.25;10497127;28;20045;-73
2022/08/04 06:30:56;;;;;;;12.48;4.20;;;;;;;32.45;44.38;100130.56;10497157;28;20089;-73
2022/08/04 06:35:59;;;;;;;26.13;4.07;;;;;;;32.72;44.45;100132.25;10497674;28;20057;-75
2022/08/04 06:41:02;;;;;;;;;;;;;;;32.94;42.72;100123.84;10496993;28;20040;-72
2022/08/04 06:46:05;;;;;;;7.15;3.58;;;;;;;32.71;42.57;100095.69;10496007;28;19969;-72
2022/08/04 06:51:07;;;;;;;8.10;3.60;;;;;;;33.09;40.97;100124.53;10511502;28;20040;-72
2022/08/04 06:56:10;;;;;;;43.28;4.47;;;;;;;33.19;41.13;100114.00;10496400;28;20048;-73
2022/08/04 07:01:12;;;;;;;10.57;3.50;;;;;;;33.08;40.90;100049.41;10496788;28;20047;-72
2022/08/04 07:06:14;;;;;;;19.35;4.07;;;;;;;33.61;39.91;100110.72;10497012;28;20044;-73
2022/08/04 07:11:16;;;;;;;13.30;3.65;;;;;;;33.76;39.86;100090.88;10494981;28;20032;-74
2022/08/04 07:16:18;;;;;;;;;;;;;;;34.31;38.15;100114.84;10460901;28;20048;-72
2022/08/04 07:21:21;;;;;;;;;;;;;;;34.38;38.54;100113.50;10454699;28;20018;-74
2022/08/04 07:26:27;;;;;;;6.05;3.10;;;;;;;34.19;38.42;100103.69;10454368;28;20387;-73
2022/08/04 07:31:29;;;;;;;9.57;4.03;;;;;;;34.19;37.32;100100.13;10454553;28;20119;-73
2022/08/04 07:36:29;;;;;;;5.90;3.77;;;;;;;33.83;37.31;100043.53;10453971;28;20420;-75
2022/08/04 07:41:30;;;;;;;12.50;3.17;;;;;;;34.43;36.60;100094.81;10453353;28;20037;-71
2022/08/04 07:46:31;;;;;;;13.13;3.55;;;;;;;34.38;35.34;100072.94;10453494;28;20041;-75
2022/08/04 07:51:34;;;;;;;6.85;3.03;;;;;;;34.49;34.53;100079.69;10454622;28;20041;-74
2022/08/04 07:56:37;;;;;;;6.40;3.30;;;;;;;34.61;34.58;100081.72;10454689;28;20492;-74
2022/08/04 08:01:37;;;;;;;;;;;;;;;34.98;34.17;100088.25;10454094;28;20524;-72
2022/08/04 08:06:40;;;;;;;14.80;3.30;;;;;;;34.66;34.28;100072.44;10452795;28;19917;-77
2022/08/04 08:11:45;;;;;;;;;;;;;;;35.13;33.75;100077.75;10453796;28;20099;-75
2022/08/04 08:16:46;;;;;;;16.95;3.20;;;;;;;35.05;33.01;100053.78;10452360;28;19932;-72
2022/08/04 08:21:48;;;;;;;3.08;2.47;;;;;;;35.28;32.24;100052.25;10453171;28;20068;-73
2022/08/04 08:26:49;;;;;;;19.15;3.65;;;;;;;35.56;32.03;100049.69;10456213;28;20048;-72
2022/08/04 08:31:51;;;;;;;6.60;2.72;;;;;;;35.75;30.95;100057.44;10460411;28;20518;-73
2022/08/04 08:37:22;;;;;;;9.53;2.90;;;;;;;35.72;29.21;100049.84;10460220;28;20127;-73
2022/08/04 08:42:26;;;;;;;6.03;2.78;;;;;;;35.78;29.33;100042.94;10457786;28;20505;-71
2022/08/04 08:47:45;;;;;;;10.20;2.92;;;;;;;35.87;29.26;100029.78;10459962;28;20052;-72
2022/08/04 08:53:31;;;;;;;10.38;2.83;;;;;;;35.77;27.82;100013.66;10460137;28;20417;-73
2022/08/04 08:59:02;;;;;;;9.57;3.08;;;;;;;35.33;28.94;99977.47;10427118;28;20111;-74
2022/08/04 09:04:24;;;;;;;23.83;3.47;;;;;;;35.85;28.77;100023.78;10459390;28;20032;-73
2022/08/04 09:09:35;;;;;;;10.48;2.60;;;;;;;35.60;28.00;99953.94;10458745;28;20112;-73
2022/08/04 09:14:49;;;;;;;12.97;3.00;;;;;;;36.26;27.54;100013.66;10459093;28;20060;-72
2022/08/04 09:20:09;;;;;;;12.48;2.80;;;;;;;36.46;27.72;100002.75;10441379;28;20045;-73
2022/08/04 09:25:29;;;;;;;15.00;3.45;;;;;;;36.54;25.73;99994.34;10459175;28;20039;-75
2022/08/04 09:31:06;;;;;;;6.93;2.90;;;;;;;36.70;26.72;100015.72;10458933;28;20040;-73
2022/08/04 09:36:27;;;;;;;13.63;3.20;;;;;;;36.69;25.46;100011.34;10435653;28;20056;-72
2022/08/04 09:41:42;;;;;;;8.20;3.05;;;;;;;36.13;24.72;99912.50;10458350;28;20127;-73
2022/08/04 09:47:04;;;;;;;4.97;2.65;;;;;;;36.71;26.71;99997.97;10440103;28;20041;-74
2022/08/04 09:52:25;;;;;;;7.70;2.75;;;;;;;36.94;26.05;100006.50;10439448;28;20076;-74
2022/08/04 09:57:38;;;;;;;10.35;3.15;;;;;;;36.99;25.35;100003.47;10456520;28;20052;-77
2022/08/04 10:02:43;;;;;;;12.13;3.55;;;;;;;37.06;26.17;100000.13;10456283;28;20624;-74
2022/08/04 10:08:00;;;;;;;10.40;2.90;;;;;;;37.34;24.54;100008.38;10456692;28;20405;-76
2022/08/04 10:13:17;;;;;;;11.32;3.42;;;;;;;37.18;24.58;99989.75;10456118;28;20146;-75
2022/08/04 10:19:02;;;;;;;18.95;3.55;;;;;;;37.39;23.47;100000.59;10473238;28;20086;-73
2022/08/04 10:24:50;;;;;;;14.32;3.25;;;;;;;37.33;24.02;99976.28;10363272;28;20052;-75
2022/08/04 10:29:56;;;;;;;19.05;3.72;;;;;;;37.34;23.73;99994.53;10468123;28;20048;-74
2022/08/04 10:35:14;;;;;;;15.00;3.13;;;;;;;37.38;23.50;99992.66;10455816;28;20400;-76
2022/08/04 10:40:35;;;;;;;10.10;3.55;;;;;;;37.31;22.75;99986.94;10475651;28;20048;-75
2022/08/04 10:45:45;;;;;;;28.45;4.65;;;;;;;37.35;23.30;99971.19;10482943;28;20045;-74
2022/08/04 10:51:10;;;;;;;11.13;3.03;;;;;;;37.45;23.79;99973.41;10496039;28;20040;-77
2022/08/04 10:56:21;;;;;;;8.10;2.85;;;;;;;37.18;23.12;99939.13;10495694;28;20047;-78
2022/08/04 11:01:28;;;;;;;6.33;2.53;;;;;;;37.04;23.46;99891.69;10491270;28;20408;-74
2022/08/04 11:06:31;;;;;;;4.82;2.67;;;;;;;37.06;22.85;99901.25;10487909;28;20507;-72
2022/08/04 11:11:40;;;;;;;6.63;2.50;;;;;;;37.42;23.58;99935.34;10490629;28;20079;-74
2022/08/04 11:16:52;;;;;;;6.63;2.45;;;;;;;37.31;22.22;99901.88;10489126;28;20087;-74
2022/08/04 11:21:59;;;;;;;15.95;3.70;;;;;;;37.02;22.18;99869.91;10489855;28;20131;-75
2022/08/04 11:27:07;;;;;;;15.45;2.90;;;;;;;37.41;21.81;99942.88;10491227;28;20040;-75
2022/08/04 11:32:18;;;;;;;5.15;2.30;;;;;;;37.58;22.58;99936.19;10490487;28;20496;-75
2022/08/04 11:37:27;;;;;;;5.30;2.63;;;;;;;37.63;22.09;99926.78;10489266;28;20075;-74
2022/08/04 11:42:35;;;;;;;18.73;3.50;;;;;;;37.72;22.69;99926.56;10491228;28;20484;-73
2022/08/04 11:47:54;;;;;;;10.88;2.95;;;;;;;37.74;21.54;99924.25;10484957;28;20562;-74
2022/08/04 11:52:57;;;;;;;11.82;2.70;;;;;;;37.60;21.94;99933.84;10488527;28;20040;-74
2022/08/04 11:57:58;;;;;;;7.63;2.42;;;;;;;37.00;21.69;99848.09;10489722;28;20415;-77
2022/08/04 12:03:45;;;;;;;4.63;2.60;;;;;;;37.59;20.80;99903.72;10496376;28;20043;-74
2022/08/04 12:09:10;;;;;;;12.23;3.00;;;;;;;37.06;21.90;99845.84;10497067;28;20041;-76
2022/08/04 12:14:37;;;;;;;12.45;2.72;;;;;;;37.56;21.22;99913.56;10496141;28;20059;-73
2022/08/04 12:19:48;;;;;;;8.40;2.55;;;;;;;36.62;22.07;99798.06;10491846;28;20102;-75
2022/08/04 12:25:07;;;;;;;8.75;3.47;;;;;;;37.49;21.57;99916.19;10498018;28;20563;-77
2022/08/04 12:30:08;;;;;;;16.25;2.95;;;;;;;37.21;21.49;99894.09;10497378;28;20032;-75
2022/08/04 12:35:22;;;;;;;8.18;2.72;;;;;;;37.33;20.94;99904.25;10499659;28;20044;-74
2022/08/04 12:40:26;;;;;;;7.28;2.60;;;;;;;37.31;20.79;99896.34;10497700;28;20471;-73
2022/08/04 12:45:29;;;;;;;10.48;2.92;;;;;;;37.30;21.49;99896.69;10499340;28;20056;-75
2022/08/04 12:50:31;;;;;;;5.15;2.22;;;;;;;37.28;20.88;99899.03;10499835;28;20032;-79
2022/08/04 12:55:34;;;;;;;4.43;2.67;;;;;;;37.09;21.28;99864.53;10498813;28;20042;-74
2022/08/04 13:00:36;;;;;;;15.60;2.75;;;;;;;36.99;21.46;99865.88;10493294;28;20040;-75
2022/08/04 13:05:40;;;;;;;11.15;2.92;;;;;;;37.07;21.38;99877.94;10488888;28;20056;-73
2022/08/04 13:10:46;;;;;;;7.45;2.88;;;;;;;36.60;21.15;99820.56;10501882;28;20447;-80
2022/08/04 13:16:05;;;;;;;8.63;2.88;;;;;;;37.03;21.33;99884.53;10499691;28;20056;-75
2022/08/04 13:34:59;;;;;;;7.22;2.95;;;;;;;37.06;21.00;99897.66;10529791;28;20397;-77
2022/08/04 13:40:03;;;;;;;13.20;4.00;;;;;;;36.92;20.93;99903.63;10532322;28;20075;-76
2022/08/04 13:45:07;;;;;;;10.52;3.20;;;;;;;36.52;20.56;99869.38;10472536;28;20485;-73
2022/08/04 13:50:29;;;;;;;23.08;3.80;;;;;;;36.54;20.82;99914.09;10452939;28;20103;-72
2022/08/04 13:55:34;;;;;;;14.00;3.30;;;;;;;36.39;20.85;99891.91;10462919;28;20135;-75
2022/08/04 14:00:57;;;;;;;8.13;3.00;;;;;;;36.34;20.05;99902.06;10489237;28;20044;-72
2022/08/04 14:06:09;;;;;;;16.98;3.42;;;;;;;35.86;20.68;99843.00;10488486;28;20053;-77
2022/08/04 14:11:10;;;;;;;;;;;;;;;36.32;21.06;99898.84;10489313;28;20446;-74
2022/08/04 14:16:29;;;;;;;18.20;3.73;;;;;;;36.07;21.21;99895.34;10487917;28;19956;-75
2022/08/04 14:21:35;;;;;;;8.63;3.08;;;;;;;35.49;20.22;99841.47;10487892;28;20364;-72
2022/08/04 14:26:36;;;;;;;19.45;4.28;;;;;;;35.73;21.17;99904.19;10467524;28;20065;-74
2022/08/04 14:31:38;;;;;;;8.30;3.37;;;;;;;35.51;21.12;99888.84;10483328;28;20095;-72
2022/08/04 14:36:40;;;;;;;39.58;5.38;;;;;;;35.16;21.91;99865.28;10459620;28;20524;-74
2022/08/04 14:41:49;;;;;;;19.40;4.05;;;;;;;35.07;21.50;99867.34;10460105;28;20131;-72
2022/08/04 14:46:56;;;;;;;10.27;3.20;;;;;;;34.86;21.24;99863.88;10453320;28;20041;-76
2022/08/04 14:52:01;;;;;;;10.15;3.30;;;;;;;35.03;21.15;99915.28;10452430;28;20041;-73
2022/08/04 14:57:04;;;;;;;13.07;3.55;;;;;;;34.93;21.70;99922.03;10459450;28;20041;-75
2022/08/04 15:02:06;;;;;;;9.68;3.20;;;;;;;34.82;21.20;99918.09;10459840;28;20045;-75
2022/08/04 15:07:07;;;;;;;11.77;3.30;;;;;;;34.74;21.22;99933.63;10455286;28;20033;-73
2022/08/04 15:12:09;;;;;;;13.98;3.65;;;;;;;34.61;21.61;99921.72;10441527;28;20084;-73
2022/08/04 15:17:11;;;;;;;11.75;3.45;;;;;;;34.51;21.61;99933.97;10435598;28;20037;-75
2022/08/04 15:22:12;;;;;;;14.32;3.83;;;;;;;34.34;21.50;99939.63;10416696;28;20158;-75
2022/08/04 15:27:14;;;;;;;11.90;3.58;;;;;;;33.37;21.47;99833.16;10457858;28;20072;-73
2022/08/04 15:32:16;;;;;;;8.55;3.33;;;;;;;33.56;21.31;99877.59;10443450;28;20504;-75
2022/08/04 15:37:35;;;;;;;29.27;3.60;;;;;;;33.74;21.38;99925.13;10417260;28;20037;-72
2022/08/04 15:42:59;;;;;;;16.65;3.90;;;;;;;33.69;21.29;99932.78;10416725;28;20124;-73
2022/08/04 15:47:59;;;;;;;8.98;2.72;;;;;;;33.64;20.88;99945.59;10438487;28;20064;-73
2022/08/04 15:53:03;;;;;;;16.83;3.28;;;;;;;33.44;20.62;99951.81;10458044;28;20131;-74
2022/08/04 15:58:14;;;;;;;20.50;3.25;;;;;;;33.29;20.26;99944.13;10457228;28;20119;-72
2022/08/04 16:03:33;;;;;;;10.70;3.13;;;;;;;33.13;20.34;99963.94;10434502;28;20045;-72
2022/08/04 16:08:59;;;;;;;9.55;3.35;;;;;;;32.92;20.73;99961.03;10415493;28;20047;-74
2022/08/04 16:14:08;;;;;;;17.08;3.42;;;;;;;32.79;20.67;99969.47;10405881;28;20057;-75
2022/08/04 16:19:30;;;;;;;35.55;4.05;;;;;;;32.36;21.15;99927.09;10413813;28;20199;-73
2022/08/04 16:24:39;;;;;;;18.70;4.03;;;;;;;32.07;21.54;99905.78;10432122;28;20069;-73
2022/08/04 16:29:41;;;;;;;19.30;3.55;;;;;;;32.32;21.57;99983.88;10419198;28;20099;-72
2022/08/04 16:35:03;;;;;;;14.70;3.33;;;;;;;31.88;22.05;99924.47;10456181;28;20508;-75
2022/08/04 16:40:22;;;;;;;;;;;;;;;32.19;22.35;99985.63;10455771;28;20055;-76
2022/08/04 16:45:38;;;;;;;8.25;2.97;;;;;;;31.93;22.61;99999.31;10455382;28;19916;-74
2022/08/04 16:50:46;;;;;;;15.35;3.13;;;;;;;31.78;23.38;99995.03;10454112;28;20041;-73
2022/08/04 16:55:49;;;;;;;6.95;3.08;;;;;;;31.68;24.06;99987.09;10454236;28;20033;-69
2022/08/04 17:00:49;;;;;;;;;;;;;;;31.71;24.29;100002.94;10453994;28;20051;-69
2022/08/04 17:06:08;;;;;;;9.35;3.38;;;;;;;31.50;24.89;100004.63;10432236;28;19917;-70
2022/08/04 17:11:10;;;;;;;9.57;3.10;;;;;;;31.34;24.70;100005.03;10435335;28;20563;-69
2022/08/04 17:16:19;;;;;;;8.67;3.20;;;;;;;31.25;25.72;100012.38;10446776;28;20041;-69
2022/08/04 17:21:29;;;;;;;7.97;3.28;;;;;;;30.81;25.84;99967.44;10413067;28;20455;-69
2022/08/04 17:26:33;;;;;;;8.25;3.47;;;;;;;31.01;25.73;100009.97;10412639;28;20042;-69
2022/08/04 17:31:36;;;;;;;8.20;3.72;;;;;;;30.10;26.30;99893.16;10412734;28;20140;-69
2022/08/04 17:36:38;;;;;;;6.53;3.63;;;;;;;30.34;26.18;99958.66;10412968;28;20554;-70
2022/08/04 17:41:39;;;;;;;7.15;3.33;;;;;;;30.53;26.73;100017.97;10412360;28;20098;-71
2022/08/04 17:46:44;;;;;;;8.80;3.45;;;;;;;30.00;26.81;99970.88;10412649;28;20068;-70
2022/08/04 17:51:50;;;;;;;6.32;3.40;;;;;;;30.18;27.36;100025.81;10412130;28;20048;-70
2022/08/04 17:56:53;;;;;;;11.05;3.63;;;;;;;30.00;27.55;100031.13;10410818;28;20052;-70
2022/08/04 18:01:56;;;;;;;15.35;3.83;;;;;;;29.83;27.56;100019.97;10413001;28;20123;-70
2022/08/04 18:07:07;;;;;;;9.10;3.70;;;;;;;29.40;28.39;99973.69;10445418;28;20515;-72
2022/08/04 18:12:20;;;;;;;18.17;4.55;;;;;;;29.55;28.38;100021.84;10420512;28;20111;-73
2022/08/04 18:17:31;;;;;;;;;;;;;;;29.61;27.91;100012.41;10432740;28;20048;-71
2022/08/04 18:22:33;;;;;;;10.70;4.40;;;;;;;28.90;28.62;99949.66;10461050;28;19916;-71
2022/08/04 18:27:34;;;;;;;16.10;3.92;;;;;;;29.17;28.91;100004.75;10458952;28;20469;-70
2022/08/04 18:32:35;;;;;;;12.23;3.70;;;;;;;29.16;29.33;100003.94;10460309;28;20527;-71
2022/08/04 18:37:36;;;;;;;7.05;3.88;;;;;;;28.82;29.22;99955.81;10460558;28;20047;-70
2022/08/04 18:42:37;;;;;;;10.50;4.00;;;;;;;29.06;29.48;99988.53;10452491;28;20032;-71
2022/08/04 18:47:39;;;;;;;11.23;3.80;;;;;;;28.91;29.55;99977.81;10448530;28;20060;-71
2022/08/04 18:52:40;;;;;;;10.25;3.55;;;;;;;28.98;29.74;99991.91;10449350;28;20037;-71
2022/08/04 18:57:40;;;;;;;9.10;3.70;;;;;;;28.87;30.26;99982.28;10450018;28;20034;-72
2022/08/04 19:02:41;;;;;;;8.65;3.70;;;;;;;28.75;30.65;99987.34;10432988;28;20045;-71
2022/08/04 19:07:42;;;;;;;6.15;3.55;;;;;;;28.56;31.21;99976.47;10418701;28;20045;-69
2022/08/04 19:12:43;;;;;;;9.63;3.92;;;;;;;28.60;31.34;100008.38;10417110;28;20037;-69
2022/08/04 19:17:44;;;;;;;12.93;4.13;;;;;;;28.57;31.79;100016.31;10418043;28;20072;-69
2022/08/04 19:22:44;;;;;;;9.85;3.85;;;;;;;28.52;32.06;100019.97;10416646;28;20072;-70
2022/08/04 19:27:45;;;;;;;11.77;3.85;;;;;;;28.46;32.17;100017.59;10418448;28;20516;-71
2022/08/04 19:32:46;;;;;;;11.52;4.07;;;;;;;28.09;32.60;99980.91;10425622;28;20059;-70
2022/08/04 19:37:47;;;;;;;14.20;4.47;;;;;;;28.28;32.96;100022.72;10417010;28;20068;-70
2022/08/04 19:42:48;;;;;;;17.90;4.10;;;;;;;28.22;33.06;100019.25;10416727;28;20087;-70
2022/08/04 19:47:48;;;;;;;19.05;4.32;;;;;;;28.18;33.27;100018.22;10416772;28;20065;-69
2022/08/04 19:52:50;;;;;;;12.50;4.13;;;;;;;27.68;33.41;99954.13;10431695;28;20137;-70
2022/08/04 19:57:51;;;;;;;7.38;3.80;;;;;;;27.90;33.80;100000.81;10415842;28;20123;-70
2022/08/04 20:02:52;;;;;;;7.57;3.55;;;;;;;27.87;34.18;100015.03;10415787;28;20076;-71
2022/08/04 20:07:53;;;;;;;10.05;4.22;;;;;;;27.48;34.34;99971.53;10415225;28;20095;-71
2022/08/04 20:12:56;;;;;;;14.00;4.63;;;;;;;27.25;34.57;99968.50;10415304;28;20045;-70
2022/08/04 20:17:57;;;;;;;11.10;4.43;;;;;;;27.16;34.93;99958.47;10415093;28;20178;-70
2022/08/04 20:22:58;;;;;;;9.45;4.20;;;;;;;27.42;35.03;100013.59;10414399;28;20179;-70
2022/08/04 20:27:59;;;;;;;10.02;4.55;;;;;;;27.25;35.07;100005.84;10414663;28;20516;-71
2022/08/04 20:33:00;;;;;;;9.75;4.00;;;;;;;27.24;35.29;100020.59;10414395;28;20054;-69
2022/08/04 20:38:00;;;;;;;8.38;4.43;;;;;;;26.62;35.86;99938.47;10414485;28;20049;-69
2022/08/04 20:43:01;;;;;;;13.23;4.25;;;;;;;26.65;35.74;99954.25;10413514;28;20447;-69
2022/08/04 20:48:02;;;;;;;11.20;4.63;;;;;;;26.94;36.04;100019.72;10413664;28;20489;-71
2022/08/04 20:53:06;;;;;;;8.63;4.30;;;;;;;26.81;36.56;100028.53;10414495;28;20408;-70
2022/08/04 20:58:07;;;;;;;12.30;4.47;;;;;;;26.63;36.52;99986.44;10413925;28;20048;-70
2022/08/04 21:03:08;;;;;;;8.07;4.47;;;;;;;26.67;36.41;100011.19;10412827;28;20045;-70
2022/08/04 21:08:09;;;;;;;9.52;4.20;;;;;;;26.54;36.84;100004.47;10413778;28;20473;-70
2022/08/04 21:13:09;;;;;;;11.85;4.40;;;;;;;26.53;37.07;100016.44;10413062;28;20496;-71
2022/08/04 21:18:12;;;;;;;7.55;3.67;;;;;;;26.04;37.55;99946.47;10412770;28;20516;-70
2022/08/04 21:23:13;;;;;;;8.05;3.97;;;;;;;26.42;37.77;100000.16;10428558;28;20037;-70
2022/08/04 21:28:13;;;;;;;13.77;4.00;;;;;;;26.34;37.61;99998.00;10412381;28;20045;-70
2022/08/04 21:33:14;;;;;;;7.25;3.70;;;;;;;25.87;38.04;99927.75;10412374;28;20057;-70
2022/08/04 21:38:15;;;;;;;8.68;3.85;;;;;;;25.48;38.37;99888.44;10412807;28;20417;-70
2022/08/04 21:43:16;;;;;;;5.78;3.63;;;;;;;25.99;38.79;99998.19;10431316;28;20052;-70
2022/08/04 21:48:17;;;;;;;10.73;4.03;;;;;;;25.87;38.73;99996.59;10420383;28;20516;-70
2022/08/04 21:53:17;;;;;;;22.35;4.80;;;;;;;25.36;38.71;99923.28;10420538;28;20041;-70
2022/08/04 21:58:18;;;;;;;11.88;4.15;;;;;;;25.21;39.05;99907.81;10421363;28;20427;-70
2022/08/04 22:03:19;;;;;;;15.10;4.43;;;;;;;25.64;39.15;99978.97;10419766;28;20059;-70
2022/08/04 22:08:20;;;;;;;6.90;3.92;;;;;;;25.50;39.00;99954.25;10420401;28;20400;-70
2022/08/04 22:13:21;;;;;;;9.07;4.00;;;;;;;25.51;39.59;99974.09;10419651;28;20555;-70
2022/08/04 22:18:22;;;;;;;6.75;3.70;;;;;;;25.05;39.91;99901.59;10419979;28;20544;-70
2022/08/04 22:23:22;;;;;;;8.68;3.80;;;;;;;25.41;40.84;99960.53;10419537;28;20052;-70
2022/08/04 22:28:24;;;;;;;12.88;4.85;;;;;;;25.09;40.86;99933.66;10418881;28;20124;-70
2022/08/04 22:33:25;;;;;;;7.55;4.10;;;;;;;25.11;41.53;99958.66;10419491;28;20053;-70
2022/08/04 22:38:26;;;;;;;10.15;4.18;;;;;;;24.92;41.80;99961.94;10435372;28;20045;-72
2022/08/04 22:43:27;;;;;;;11.63;3.85;;;;;;;24.74;42.01;99954.31;10418564;28;20128;-70
2022/08/04 22:48:28;;;;;;;6.82;3.95;;;;;;;24.51;42.25;99953.75;10418273;28;20568;-70
2022/08/04 22:53:29;;;;;;;10.25;3.90;;;;;;;24.31;43.39;99949.06;10433551;28;20136;-70
2022/08/04 22:58:30;;;;;;;96.47;9.05;;;;;;;24.10;45.12;99966.41;10417866;28;20095;-70
2022/08/04 23:03:31;;;;;;;9.82;4.03;;;;;;;24.07;45.17;99969.66;10418362;28;20045;-70
2022/08/04 23:08:32;;;;;;;15.75;4.63;;;;;;;23.49;46.53;99899.16;10417475;28;20037;-70
2022/08/04 23:13:33;;;;;;;9.85;4.18;;;;;;;23.23;46.79;99885.44;10417865;28;20120;-70
2022/08/04 23:18:34;;;;;;;11.75;4.43;;;;;;;23.57;47.15;99971.84;10417063;28;20475;-70
2022/08/04 23:23:35;;;;;;;8.70;4.07;;;;;;;23.32;47.73;99942.69;10416823;28;20088;-70
2022/08/04 23:28:36;;;;;;;5.53;4.20;;;;;;;23.09;48.33;99922.22;10416491;28;20048;-70
2022/08/04 23:33:37;;;;;;;10.45;4.60;;;;;;;23.11;49.78;99958.00;10416775;28;20080;-70
2022/08/04 23:38:38;;;;;;;10.80;4.35;;;;;;;23.00;51.22;99967.97;10416361;28;20140;-70
2022/08/04 23:43:40;;;;;;;64.90;7.85;;;;;;;22.31;52.02;99887.44;10416242;28;20148;-72
2022/08/04 23:48:41;;;;;;;9.32;4.40;;;;;;;22.78;51.33;99973.41;10416629;28;20382;-70
2022/08/04 23:53:43;;;;;;;11.50;4.63;;;;;;;22.75;51.07;99978.53;10416298;28;20124;-69
2022/08/04 23:58:44;;;;;;;9.40;4.28;;;;;;;22.17;51.19;99897.06;10416567;28;20044;-70
